Portosanto — EAPR — position and weather

sailwx.info

Track history (hours):
 
Tides and Currents Weather Stations Pressure Air Temp Water Temp Dewpoint Dewpoint Depression Visibility Wind Speed Wind Dir Waves Ship Positions

Portosanto

Last reported at 2017-Sep-10 01:31 UTC. Time now 2017-Sep-21 18:00 UTC.
Position N 39°18' W 009°44'.
Warning: this ship's position is 11 days out of date.

Length 27 m; draft 3 m.

Type: Fishing. MMSI: 225353000.

Date/timePositionNaut miles runAvg speedWind from/ knotsBaromVisibWave heightAir tempDewpointWater temp
2017-Sep-10 01:31N 39°18' W 009°44'010.1
2017-Sep-10 01:30N 39°18' W 009°44'7 9.8
2017-Sep-10 00:49N 39°11' W 009°45'3 9.3
2017-Sep-10 00:30N 39°08' W 009°46'3 6.7
2017-Sep-10 00:00N 39°05' W 009°47'1 1.4
2017-Sep-09 23:30N 39°05' W 009°48'1 3.0
2017-Sep-09 23:01N 39°05' W 009°50'2 3.1
2017-Sep-09 22:30N 39°04' W 009°51'1 3.0
2017-Sep-09 22:00N 39°03' W 009°53'2 3.0
2017-Sep-09 21:30N 39°02' W 009°54'2 3.0
2017-Sep-09 21:01N 39°01' W 009°56'2 3.1
2017-Sep-09 20:30N 38°60' W 009°57'4 7.6
2017-Sep-09 20:00N 38°57' W 009°60'3 6.1
2017-Sep-09 19:30N 38°55' W 010°02'1 1.9
2017-Sep-09 18:43N 38°55' W 010°01'1 3.1
2017-Sep-09 18:30N 38°56' W 010°00'2 3.2
2017-Sep-09 17:58N 38°57' W 009°58'1 3.0
2017-Sep-09 17:30N 38°58' W 009°57'2 3.1
2017-Sep-09 17:00N 38°59' W 009°57'2 3.2
2017-Sep-09 16:30N 39°01' W 009°57'2 3.2
2017-Sep-09 16:01N 39°02' W 009°57'2 3.2
2017-Sep-09 15:31N 39°03' W 009°59'2 3.2
2017-Sep-09 15:00N 39°04' W 010°01'2 3.2
2017-Sep-09 14:30N 39°06' W 010°01'3 6.7
2017-Sep-09 14:01N 39°09' W 010°02'1 0.9
2017-Sep-09 13:19N 39°09' W 010°03'3 3.1
2017-Sep-09 12:16N 39°06' W 010°03'1 3.1
2017-Sep-09 11:58N 39°05' W 010°03'1 3.1
2017-Sep-09 11:30N 39°03' W 010°03'2 3.1
2017-Sep-09 11:00N 39°02' W 010°03'2 3.1
2017-Sep-09 10:30N 39°00' W 010°03'2 3.1
2017-Sep-09 10:00N 38°59' W 010°05'2 3.2
2017-Sep-09 09:30N 38°58' W 010°06'2 4.5
2017-Sep-09 09:00N 38°56' W 010°07'2 3.1
2017-Sep-09 08:30N 38°54' W 010°07'1 1.4
2017-Sep-09 08:00N 38°55' W 010°07'1 1.8
2017-Sep-09 07:30N 38°55' W 010°08'1 2.3
2017-Sep-09 07:00N 38°55' W 010°10'1 2.2
2017-Sep-09 06:30N 38°55' W 010°11'2 3.5
2017-Sep-09 05:57N 38°55' W 010°14'1 1.9
2017-Sep-09 05:25N 38°55' W 010°12'1 2.1
2017-Sep-09 04:54N 38°55' W 010°11'2 2.1
2017-Sep-09 04:06N 38°55' W 010°09'0 4.2
2017-Sep-09 04:00N 38°54' W 010°08'0 0.8
2017-Sep-09 03:30N 38°55' W 010°08'1 2.1
2017-Sep-09 03:00N 38°55' W 010°10'1 2.1
2017-Sep-09 02:30N 38°55' W 010°11'1 2.7
2017-Sep-09 02:01N 38°55' W 010°13'1 2.1
2017-Sep-09 01:30N 38°55' W 010°14'1 1.4
2017-Sep-09 00:59N 38°55' W 010°13'1 1.7
2017-Sep-09 00:27N 38°55' W 010°12'1 2.1
2017-Sep-09 00:00N 38°55' W 010°11'1 2.2
2017-Sep-08 23:30N 38°55' W 010°10'1 2.9
2017-Sep-08 23:00N 38°55' W 010°08'1 2.1
2017-Sep-08 22:30N 38°55' W 010°09'1 2.1
2017-Sep-08 22:01N 38°55' W 010°10'1 2.1
2017-Sep-08 21:26N 38°55' W 010°12'1 1.7
2017-Sep-08 20:48N 38°54' W 010°12'4 3.0
2017-Sep-08 19:26N 38°55' W 010°07'2 3.5
2017-Sep-08 19:00N 38°56' W 010°06'1 1.5
2017-Sep-08 18:30N 38°57' W 010°06'2 3.1
2017-Sep-08 18:00N 38°58' W 010°04'1 3.0
2017-Sep-08 17:31N 38°59' W 010°04'1 2.9
2017-Sep-08 17:00N 39°00' W 010°03'1 3.0
2017-Sep-08 16:30N 39°01' W 010°01'1 2.9
2017-Sep-08 16:00N 39°00' W 009°59'2 3.2
2017-Sep-08 15:31N 38°59' W 009°57'2 3.3
2017-Sep-08 15:01N 38°58' W 009°56'1 1.9
2017-Sep-08 14:30N 38°58' W 009°55'0 0.7
2017-Sep-08 14:00N 38°58' W 009°55'2 3.1
2017-Sep-08 13:30N 38°59' W 009°56'1 3.0
2017-Sep-08 13:00N 38°60' W 009°58'1 2.9
2017-Sep-08 12:30N 39°00' W 009°60'2 3.1
2017-Sep-08 12:01N 39°00' W 010°02'1 2.9
2017-Sep-08 11:30N 38°60' W 010°03'1 2.9
2017-Sep-08 11:01N 38°59' W 010°05'2 3.1
2017-Sep-08 10:30N 38°57' W 010°06'1 2.4
2017-Sep-08 10:01N 38°56' W 010°06'0 0.7
2017-Sep-08 09:30N 38°57' W 010°06'1 2.8
2017-Sep-08 09:00N 38°58' W 010°06'1 2.8
2017-Sep-08 08:30N 38°59' W 010°05'2 3.1
2017-Sep-08 08:00N 39°00' W 010°03'2 3.1
2017-Sep-08 07:30N 39°01' W 010°02'2 3.0
2017-Sep-08 07:01N 39°01' W 009°60'2 3.1
2017-Sep-08 06:30N 38°60' W 009°58'2 3.2
2017-Sep-08 06:00N 38°59' W 009°57'2 3.8
2017-Sep-08 05:30N 38°57' W 009°56'1 2.2
2017-Sep-08 05:00N 38°56' W 009°55'1 2.1
2017-Sep-08 04:30N 38°57' W 009°53'2 3.1
2017-Sep-08 04:00N 38°57' W 009°52'2 3.1
2017-Sep-08 03:30N 38°57' W 009°50'2 3.1
2017-Sep-08 03:00N 38°57' W 009°48'2 3.1
2017-Sep-08 02:30N 38°56' W 009°46'0 0.7
2017-Sep-08 02:00N 38°56' W 009°47'2 3.1
2017-Sep-08 01:30N 38°57' W 009°49'2 3.1
2017-Sep-08 01:00N 38°57' W 009°51'2 3.1
2017-Sep-08 00:30N 38°57' W 009°53'2 3.8
2017-Sep-08 00:00N 38°56' W 009°55'0 1.0
2017-Sep-07 23:30N 38°57' W 009°56'1 2.7
2017-Sep-07 23:01N 38°58' W 009°57'2 3.1
2017-Sep-07 22:31N 38°59' W 009°58'2 3.1
2017-Sep-07 22:00N 39°00' W 009°59'2 3.2
2017-Sep-07 21:30N 39°02' W 009°60'2 3.2
2017-Sep-07 21:00N 39°03' W 010°01'2 3.2
2017-Sep-07 20:30N 39°04' W 010°02'2 3.2
2017-Sep-07 20:01N 39°05' W 010°04'2 3.1
2017-Sep-07 19:30N 39°06' W 010°05'2 3.5
2017-Sep-07 19:01N 39°06' W 010°08'0 0.8
2017-Sep-07 18:30N 39°06' W 010°07'1 3.0
2017-Sep-07 18:01N 39°05' W 010°06'2 3.0
2017-Sep-07 17:30N 39°04' W 010°05'2 3.1
2017-Sep-07 17:00N 39°03' W 010°03'1 2.9
2017-Sep-07 16:30N 39°02' W 010°03'2 3.1
2017-Sep-07 16:00N 39°01' W 010°01'2 3.2
2017-Sep-07 15:30N 38°60' W 009°59'2 3.3
2017-Sep-07 15:01N 38°58' W 009°59'2 3.2
2017-Sep-07 14:31N 38°57' W 009°59'2 3.0
2017-Sep-07 14:00N 38°56' W 010°00'1 2.7
2017-Sep-07 13:31N 38°55' W 010°01'0 0.8
2017-Sep-07 13:00N 38°55' W 010°01'1 2.8
2017-Sep-07 12:31N 38°56' W 010°00'3 2.8
2017-Sep-07 11:31N 38°59' W 009°59'2 3.0
2017-Sep-07 11:01N 39°00' W 009°60'1 2.9
2017-Sep-07 10:30N 39°02' W 010°00'1 2.9
2017-Sep-07 10:00N 39°03' W 010°01'1 2.9
2017-Sep-07 09:30N 39°05' W 010°01'2 3.0
2017-Sep-07 08:53N 39°06' W 010°01'1 3.1
2017-Sep-07 08:30N 39°08' W 010°01'2 4.1
2017-Sep-07 08:00N 39°10' W 010°01'1 1.6
2017-Sep-07 07:31N 39°10' W 010°01'1 2.9
2017-Sep-07 07:00N 39°11' W 009°59'1 2.9
2017-Sep-07 06:30N 39°12' W 009°57'1 2.9
2017-Sep-07 06:00N 39°12' W 009°56'1 2.8
2017-Sep-07 05:30N 39°13' W 009°54'1 2.8
2017-Sep-07 04:59N 39°14' W 009°53'2 2.9
2017-Sep-07 04:12N 39°16' W 009°52'1 2.9
2017-Sep-07 03:55N 39°17' W 009°51'1 2.9
2017-Sep-07 03:29N 39°18' W 009°50'3 3.1
2017-Sep-07 02:36N 39°20' W 009°48'7 8.7
2017-Sep-07 01:49N 39°27' W 009°46'39 5.0
2017-Sep-06 18:02N 40°05' W 009°37'4 3.8
2017-Sep-06 17:04N 40°09' W 009°37'0 2.4
2017-Sep-06 17:00N 40°09' W 009°37'  
2017-Sep-03 16:47N 40°24' W 009°37'1 3.0
2017-Sep-03 16:30N 40°23' W 009°37'2 3.0
2017-Sep-03 16:00N 40°22' W 009°37'2 3.0
2017-Sep-03 15:26N 40°20' W 009°37'9 3.1
2017-Sep-03 12:39N 40°12' W 009°36'0 3.1
2017-Sep-03 12:29N 40°11' W 009°36'2 3.1
2017-Sep-03 11:58N 40°10' W 009°36'1 2.5
2017-Sep-03 11:29N 40°09' W 009°36'1 1.0
2017-Sep-03 10:51N 40°09' W 009°37'1 2.8
2017-Sep-03 10:27N 40°08' W 009°37'4 3.1
2017-Sep-03 09:03N 40°03' W 009°37'0 3.1
2017-Sep-03 09:00N 40°03' W 009°37'2 3.2
2017-Sep-03 08:19N 40°01' W 009°37'2 2.3
2017-Sep-03 07:37N 39°60' W 009°35'0 1.4
2017-Sep-03 07:30N 40°00' W 009°35'3 2.5
2017-Sep-03 06:24N 39°58' W 009°37'6 2.9
2017-Sep-03 04:27N 39°52' W 009°35'3 1.2
2017-Sep-03 01:58N 39°49' W 009°34'2 3.1
2017-Sep-03 01:28N 39°51' W 009°33'1 3.1
2017-Sep-03 01:00N 39°52' W 009°33'2 3.1
2017-Sep-03 00:30N 39°54' W 009°33'2 3.1
2017-Sep-03 00:00N 39°55' W 009°33'2 3.1
2017-Sep-02 23:30N 39°57' W 009°33'2 3.1
2017-Sep-02 22:55N 39°58' W 009°33'1 3.1
2017-Sep-02 22:29N 39°60' W 009°33'2 3.0
2017-Sep-02 21:59N 40°01' W 009°35'3 5.1
2017-Sep-02 21:29N 40°01' W 009°38'0 0.7
2017-Sep-02 21:00N 40°01' W 009°38'1 3.0
2017-Sep-02 20:30N 40°03' W 009°37'2 3.0
2017-Sep-02 19:58N 40°04' W 009°37'1 3.0
2017-Sep-02 19:30N 40°06' W 009°37'2 3.1
2017-Sep-02 19:00N 40°07' W 009°37'2 3.1
2017-Sep-02 18:30N 40°09' W 009°37'1 3.0
2017-Sep-02 18:00N 40°10' W 009°37'2 3.1
2017-Sep-02 17:30N 40°12' W 009°37'2 4.1
2017-Sep-02 17:00N 40°14' W 009°37'1 1.4
2017-Sep-02 16:30N 40°15' W 009°37'1 2.6
2017-Sep-02 16:00N 40°13' W 009°37'2 3.1
2017-Sep-02 15:28N 40°12' W 009°37'1 3.0
2017-Sep-02 15:00N 40°10' W 009°37'2 3.1
2017-Sep-02 14:30N 40°09' W 009°37'2 3.0
2017-Sep-02 13:55N 40°07' W 009°37'1 3.1
2017-Sep-02 13:30N 40°06' W 009°37'2 3.1
2017-Sep-02 13:00N 40°04' W 009°36'2 3.1
2017-Sep-02 12:30N 40°03' W 009°37'2 3.1
2017-Sep-02 12:00N 40°01' W 009°37'2 4.0
2017-Sep-02 11:30N 39°59' W 009°37'1 1.2
2017-Sep-02 10:57N 39°59' W 009°38'1 2.7
2017-Sep-02 10:30N 39°58' W 009°38'1 2.9
2017-Sep-02 09:59N 39°56' W 009°38'2 3.0
2017-Sep-02 09:28N 39°55' W 009°38'1 3.2
2017-Sep-02 09:00N 39°53' W 009°38'2 3.4
2017-Sep-02 08:30N 39°51' W 009°38'2 3.1
2017-Sep-02 08:00N 39°50' W 009°37'2 3.2
2017-Sep-02 07:30N 39°48' W 009°36'3 5.9
2017-Sep-02 07:00N 39°46' W 009°37'5 9.6
2017-Sep-02 06:30N 39°41' W 009°39'5 9.3
2017-Sep-02 06:00N 39°37' W 009°41'5 9.3
2017-Sep-02 05:29N 39°32' W 009°43'7 8.7
2017-Sep-02 04:38N 39°25' W 009°46'3 8.1
2017-Sep-02 04:14N 39°22' W 009°48'3 2.3
2017-Sep-02 03:02N 39°19' W 009°49'0 3.2
2017-Sep-02 02:58N 39°19' W 009°49'2 3.1
2017-Sep-02 02:23N 39°18' W 009°50'1 3.1
2017-Sep-02 02:00N 39°17' W 009°50'2 3.0
2017-Sep-02 01:30N 39°15' W 009°51'1 3.0
2017-Sep-02 01:00N 39°14' W 009°52'2 3.0
2017-Sep-02 00:23N 39°12' W 009°52'1 3.0
2017-Sep-02 00:00N 39°11' W 009°52'2 3.0
2017-Sep-01 23:30N 39°09' W 009°52'1 3.0
2017-Sep-01 23:00N 39°08' W 009°52'0 0.7
2017-Sep-01 22:30N 39°08' W 009°52'2 3.1
2017-Sep-01 22:00N 39°09' W 009°53'2 3.1
2017-Sep-01 21:30N 39°11' W 009°54'2 3.1
2017-Sep-01 21:00N 39°12' W 009°56'2 3.0
2017-Sep-01 20:29N 39°12' W 009°57'2 2.9
2017-Sep-01 19:58N 39°14' W 009°59'1 3.0
2017-Sep-01 19:28N 39°15' W 009°59'1 2.9
2017-Sep-01 18:58N 39°16' W 010°00'2 3.1
2017-Sep-01 18:29N 39°18' W 010°01'2 3.4
2017-Sep-01 17:52N 39°18' W 010°04'2 5.5
2017-Sep-01 17:29N 39°16' W 010°04'0 0.5
2017-Sep-01 16:58N 39°17' W 010°05'3 2.9
2017-Sep-01 15:48N 39°15' W 010°01'1 3.3
2017-Sep-01 15:30N 39°14' W 009°60'2 3.2
2017-Sep-01 15:00N 39°14' W 009°58'2 3.2
2017-Sep-01 14:30N 39°13' W 009°56'2 3.0
2017-Sep-01 13:58N 39°12' W 009°55'1 3.0
2017-Sep-01 13:30N 39°11' W 009°54'1 3.0
2017-Sep-01 13:00N 39°10' W 009°52'2 3.1
2017-Sep-01 12:30N 39°08' W 009°51'1 2.9
2017-Sep-01 12:00N 39°08' W 009°49'0 0.9
2017-Sep-01 11:30N 39°08' W 009°49'2 3.0
2017-Sep-01 11:00N 39°09' W 009°50'2 3.1
2017-Sep-01 10:30N 39°11' W 009°51'2 3.1
2017-Sep-01 10:00N 39°12' W 009°53'2 3.0
2017-Sep-01 09:30N 39°13' W 009°54'1 2.9
2017-Sep-01 09:00N 39°14' W 009°55'1 2.9
2017-Sep-01 08:30N 39°15' W 009°56'2 3.0
2017-Sep-01 08:00N 39°16' W 009°58'2 3.0
2017-Sep-01 07:29N 39°17' W 009°59'2 3.6
2017-Sep-01 06:55N 39°18' W 010°02'5 2.0
2017-Sep-01 04:23N 39°15' W 009°57'2 3.1
2017-Sep-01 03:43N 39°13' W 009°55'1 3.0
2017-Sep-01 03:30N 39°12' W 009°55'2 3.0
2017-Sep-01 02:58N 39°11' W 009°53'1 3.1
2017-Sep-01 02:29N 39°10' W 009°52'1 3.1
2017-Sep-01 02:00N 39°09' W 009°51'2 3.6
2017-Sep-01 01:30N 39°07' W 009°50'3 5.6
2017-Sep-01 01:00N 39°05' W 009°47'0 0.9
2017-Sep-01 00:30N 39°05' W 009°47'1 2.7
2017-Sep-01 00:01N 39°05' W 009°48'2 3.2
2017-Aug-31 23:30N 39°05' W 009°50'2 3.2
2017-Aug-31 23:00N 39°04' W 009°52'2 3.1
2017-Aug-31 22:30N 39°03' W 009°54'2 3.1
2017-Aug-31 22:00N 39°02' W 009°55'2 3.4
2017-Aug-31 21:30N 39°00' W 009°55'2 4.6
2017-Aug-31 21:00N 38°58' W 009°55'0 1.0
2017-Aug-31 20:30N 38°58' W 009°55'2 3.0
2017-Aug-31 20:00N 38°59' W 009°56'1 3.0
2017-Aug-31 19:30N 38°60' W 009°58'1 2.9
2017-Aug-31 19:00N 39°01' W 009°60'1 2.8
2017-Aug-31 18:30N 39°01' W 010°01'1 2.9
2017-Aug-31 18:00N 39°01' W 010°03'1 2.9
2017-Aug-31 17:30N 38°59' W 010°04'2 3.6
2017-Aug-31 17:00N 38°57' W 010°04'3 5.8
2017-Aug-31 16:30N 38°55' W 010°03'0 0.9
2017-Aug-31 16:00N 38°55' W 010°02'1 3.0
2017-Aug-31 15:30N 38°56' W 010°01'2 3.1
2017-Aug-31 15:00N 38°57' W 009°60'2 3.2
2017-Aug-31 14:31N 38°59' W 009°59'2 3.1
2017-Aug-31 14:00N 39°00' W 009°60'2 3.0
2017-Aug-31 13:30N 39°01' W 010°00'2 3.0
2017-Aug-31 13:01N 39°03' W 010°01'2 3.0
2017-Aug-31 12:30N 39°04' W 010°01'2 3.1
2017-Aug-31 12:00N 39°06' W 010°01'2 3.2
2017-Aug-31 11:30N 39°08' W 010°01'2 4.4
2017-Aug-31 11:00N 39°10' W 010°01'0 0.9
2017-Aug-31 10:30N 39°10' W 010°01'2 3.0
2017-Aug-31 10:00N 39°11' W 009°60'2 3.1
2017-Aug-31 09:30N 39°13' W 009°58'2 3.1
2017-Aug-31 09:00N 39°14' W 009°57'2 3.1
2017-Aug-31 08:30N 39°15' W 009°55'2 3.0
2017-Aug-31 07:58N 39°16' W 009°54'1 3.1
2017-Aug-31 07:30N 39°17' W 009°53'1 3.0
2017-Aug-31 07:00N 39°18' W 009°52'  
Track history (hours):
 
Tides and Currents Weather Stations Pressure Air Temp Water Temp Dewpoint Dewpoint Depression Visibility Wind Speed Wind Dir Waves Ship Positions

Portosanto

Last reported at 2017-Sep-10 01:31 UTC. Time now 2017-Sep-21 18:00 UTC.
Position N 39°18' W 009°44'.
Warning: this ship's position is 11 days out of date.

Length 27 m; draft 3 m.

Type: Fishing. MMSI: 225353000.

Date/timePositionNaut miles runAvg speedWind from/ knotsBaromVisibWave heightAir tempDewpointWater temp
2017-Sep-10 01:31N 39°18' W 009°44'010.1
2017-Sep-10 01:30N 39°18' W 009°44'7 9.8
2017-Sep-10 00:49N 39°11' W 009°45'3 9.3
2017-Sep-10 00:30N 39°08' W 009°46'3 6.7
2017-Sep-10 00:00N 39°05' W 009°47'1 1.4
2017-Sep-09 23:30N 39°05' W 009°48'1 3.0
2017-Sep-09 23:01N 39°05' W 009°50'2 3.1
2017-Sep-09 22:30N 39°04' W 009°51'1 3.0
2017-Sep-09 22:00N 39°03' W 009°53'2 3.0
2017-Sep-09 21:30N 39°02' W 009°54'2 3.0
2017-Sep-09 21:01N 39°01' W 009°56'2 3.1
2017-Sep-09 20:30N 38°60' W 009°57'4 7.6
2017-Sep-09 20:00N 38°57' W 009°60'3 6.1
2017-Sep-09 19:30N 38°55' W 010°02'1 1.9
2017-Sep-09 18:43N 38°55' W 010°01'1 3.1
2017-Sep-09 18:30N 38°56' W 010°00'2 3.2
2017-Sep-09 17:58N 38°57' W 009°58'1 3.0
2017-Sep-09 17:30N 38°58' W 009°57'2 3.1
2017-Sep-09 17:00N 38°59' W 009°57'2 3.2
2017-Sep-09 16:30N 39°01' W 009°57'2 3.2
2017-Sep-09 16:01N 39°02' W 009°57'2 3.2
2017-Sep-09 15:31N 39°03' W 009°59'2 3.2
2017-Sep-09 15:00N 39°04' W 010°01'2 3.2
2017-Sep-09 14:30N 39°06' W 010°01'3 6.7
2017-Sep-09 14:01N 39°09' W 010°02'1 0.9
2017-Sep-09 13:19N 39°09' W 010°03'3 3.1
2017-Sep-09 12:16N 39°06' W 010°03'1 3.1
2017-Sep-09 11:58N 39°05' W 010°03'1 3.1
2017-Sep-09 11:30N 39°03' W 010°03'2 3.1
2017-Sep-09 11:00N 39°02' W 010°03'2 3.1
2017-Sep-09 10:30N 39°00' W 010°03'2 3.1
2017-Sep-09 10:00N 38°59' W 010°05'2 3.2
2017-Sep-09 09:30N 38°58' W 010°06'2 4.5
2017-Sep-09 09:00N 38°56' W 010°07'2 3.1
2017-Sep-09 08:30N 38°54' W 010°07'1 1.4
2017-Sep-09 08:00N 38°55' W 010°07'1 1.8
2017-Sep-09 07:30N 38°55' W 010°08'1 2.3
2017-Sep-09 07:00N 38°55' W 010°10'1 2.2
2017-Sep-09 06:30N 38°55' W 010°11'2 3.5
2017-Sep-09 05:57N 38°55' W 010°14'1 1.9
2017-Sep-09 05:25N 38°55' W 010°12'1 2.1
2017-Sep-09 04:54N 38°55' W 010°11'2 2.1
2017-Sep-09 04:06N 38°55' W 010°09'0 4.2
2017-Sep-09 04:00N 38°54' W 010°08'0 0.8
2017-Sep-09 03:30N 38°55' W 010°08'1 2.1
2017-Sep-09 03:00N 38°55' W 010°10'1 2.1
2017-Sep-09 02:30N 38°55' W 010°11'1 2.7
2017-Sep-09 02:01N 38°55' W 010°13'1 2.1
2017-Sep-09 01:30N 38°55' W 010°14'1 1.4
2017-Sep-09 00:59N 38°55' W 010°13'1 1.7
2017-Sep-09 00:27N 38°55' W 010°12'1 2.1
2017-Sep-09 00:00N 38°55' W 010°11'1 2.2
2017-Sep-08 23:30N 38°55' W 010°10'1 2.9
2017-Sep-08 23:00N 38°55' W 010°08'1 2.1
2017-Sep-08 22:30N 38°55' W 010°09'1 2.1
2017-Sep-08 22:01N 38°55' W 010°10'1 2.1
2017-Sep-08 21:26N 38°55' W 010°12'1 1.7
2017-Sep-08 20:48N 38°54' W 010°12'4 3.0
2017-Sep-08 19:26N 38°55' W 010°07'2 3.5
2017-Sep-08 19:00N 38°56' W 010°06'1 1.5
2017-Sep-08 18:30N 38°57' W 010°06'2 3.1
2017-Sep-08 18:00N 38°58' W 010°04'1 3.0
2017-Sep-08 17:31N 38°59' W 010°04'1 2.9
2017-Sep-08 17:00N 39°00' W 010°03'1 3.0
2017-Sep-08 16:30N 39°01' W 010°01'1 2.9
2017-Sep-08 16:00N 39°00' W 009°59'2 3.2
2017-Sep-08 15:31N 38°59' W 009°57'2 3.3
2017-Sep-08 15:01N 38°58' W 009°56'1 1.9
2017-Sep-08 14:30N 38°58' W 009°55'0 0.7
2017-Sep-08 14:00N 38°58' W 009°55'2 3.1
2017-Sep-08 13:30N 38°59' W 009°56'1 3.0
2017-Sep-08 13:00N 38°60' W 009°58'1 2.9
2017-Sep-08 12:30N 39°00' W 009°60'2 3.1
2017-Sep-08 12:01N 39°00' W 010°02'1 2.9
2017-Sep-08 11:30N 38°60' W 010°03'1 2.9
2017-Sep-08 11:01N 38°59' W 010°05'2 3.1
2017-Sep-08 10:30N 38°57' W 010°06'1 2.4
2017-Sep-08 10:01N 38°56' W 010°06'0 0.7
2017-Sep-08 09:30N 38°57' W 010°06'1 2.8
2017-Sep-08 09:00N 38°58' W 010°06'1 2.8
2017-Sep-08 08:30N 38°59' W 010°05'2 3.1
2017-Sep-08 08:00N 39°00' W 010°03'2 3.1
2017-Sep-08 07:30N 39°01' W 010°02'2 3.0
2017-Sep-08 07:01N 39°01' W 009°60'2 3.1
2017-Sep-08 06:30N 38°60' W 009°58'2 3.2
2017-Sep-08 06:00N 38°59' W 009°57'2 3.8
2017-Sep-08 05:30N 38°57' W 009°56'1 2.2
2017-Sep-08 05:00N 38°56' W 009°55'1 2.1
2017-Sep-08 04:30N 38°57' W 009°53'2 3.1
2017-Sep-08 04:00N 38°57' W 009°52'2 3.1
2017-Sep-08 03:30N 38°57' W 009°50'2 3.1
2017-Sep-08 03:00N 38°57' W 009°48'2 3.1
2017-Sep-08 02:30N 38°56' W 009°46'0 0.7
2017-Sep-08 02:00N 38°56' W 009°47'2 3.1
2017-Sep-08 01:30N 38°57' W 009°49'2 3.1
2017-Sep-08 01:00N 38°57' W 009°51'2 3.1
2017-Sep-08 00:30N 38°57' W 009°53'2 3.8
2017-Sep-08 00:00N 38°56' W 009°55'0 1.0
2017-Sep-07 23:30N 38°57' W 009°56'1 2.7
2017-Sep-07 23:01N 38°58' W 009°57'2 3.1
2017-Sep-07 22:31N 38°59' W 009°58'2 3.1
2017-Sep-07 22:00N 39°00' W 009°59'2 3.2
2017-Sep-07 21:30N 39°02' W 009°60'2 3.2
2017-Sep-07 21:00N 39°03' W 010°01'2 3.2
2017-Sep-07 20:30N 39°04' W 010°02'2 3.2
2017-Sep-07 20:01N 39°05' W 010°04'2 3.1
2017-Sep-07 19:30N 39°06' W 010°05'2 3.5
2017-Sep-07 19:01N 39°06' W 010°08'0 0.8
2017-Sep-07 18:30N 39°06' W 010°07'1 3.0
2017-Sep-07 18:01N 39°05' W 010°06'2 3.0
2017-Sep-07 17:30N 39°04' W 010°05'2 3.1
2017-Sep-07 17:00N 39°03' W 010°03'1 2.9
2017-Sep-07 16:30N 39°02' W 010°03'2 3.1
2017-Sep-07 16:00N 39°01' W 010°01'2 3.2
2017-Sep-07 15:30N 38°60' W 009°59'2 3.3
2017-Sep-07 15:01N 38°58' W 009°59'2 3.2
2017-Sep-07 14:31N 38°57' W 009°59'2 3.0
2017-Sep-07 14:00N 38°56' W 010°00'1 2.7
2017-Sep-07 13:31N 38°55' W 010°01'0 0.8
2017-Sep-07 13:00N 38°55' W 010°01'1 2.8
2017-Sep-07 12:31N 38°56' W 010°00'3 2.8
2017-Sep-07 11:31N 38°59' W 009°59'2 3.0
2017-Sep-07 11:01N 39°00' W 009°60'1 2.9
2017-Sep-07 10:30N 39°02' W 010°00'1 2.9
2017-Sep-07 10:00N 39°03' W 010°01'1 2.9
2017-Sep-07 09:30N 39°05' W 010°01'2 3.0
2017-Sep-07 08:53N 39°06' W 010°01'1 3.1
2017-Sep-07 08:30N 39°08' W 010°01'2 4.1
2017-Sep-07 08:00N 39°10' W 010°01'1 1.6
2017-Sep-07 07:31N 39°10' W 010°01'1 2.9
2017-Sep-07 07:00N 39°11' W 009°59'1 2.9
2017-Sep-07 06:30N 39°12' W 009°57'1 2.9
2017-Sep-07 06:00N 39°12' W 009°56'1 2.8
2017-Sep-07 05:30N 39°13' W 009°54'1 2.8
2017-Sep-07 04:59N 39°14' W 009°53'2 2.9
2017-Sep-07 04:12N 39°16' W 009°52'1 2.9
2017-Sep-07 03:55N 39°17' W 009°51'1 2.9
2017-Sep-07 03:29N 39°18' W 009°50'3 3.1
2017-Sep-07 02:36N 39°20' W 009°48'7 8.7
2017-Sep-07 01:49N 39°27' W 009°46'39 5.0
2017-Sep-06 18:02N 40°05' W 009°37'4 3.8
2017-Sep-06 17:04N 40°09' W 009°37'0 2.4
2017-Sep-06 17:00N 40°09' W 009°37'  
2017-Sep-03 16:47N 40°24' W 009°37'1 3.0
2017-Sep-03 16:30N 40°23' W 009°37'2 3.0
2017-Sep-03 16:00N 40°22' W 009°37'2 3.0
2017-Sep-03 15:26N 40°20' W 009°37'9 3.1
2017-Sep-03 12:39N 40°12' W 009°36'0 3.1
2017-Sep-03 12:29N 40°11' W 009°36'2 3.1
2017-Sep-03 11:58N 40°10' W 009°36'1 2.5
2017-Sep-03 11:29N 40°09' W 009°36'1 1.0
2017-Sep-03 10:51N 40°09' W 009°37'1 2.8
2017-Sep-03 10:27N 40°08' W 009°37'4 3.1
2017-Sep-03 09:03N 40°03' W 009°37'0 3.1
2017-Sep-03 09:00N 40°03' W 009°37'2 3.2
2017-Sep-03 08:19N 40°01' W 009°37'2 2.3
2017-Sep-03 07:37N 39°60' W 009°35'0 1.4
2017-Sep-03 07:30N 40°00' W 009°35'3 2.5
2017-Sep-03 06:24N 39°58' W 009°37'6 2.9
2017-Sep-03 04:27N 39°52' W 009°35'3 1.2
2017-Sep-03 01:58N 39°49' W 009°34'2 3.1
2017-Sep-03 01:28N 39°51' W 009°33'1 3.1
2017-Sep-03 01:00N 39°52' W 009°33'2 3.1
2017-Sep-03 00:30N 39°54' W 009°33'2 3.1
2017-Sep-03 00:00N 39°55' W 009°33'2 3.1
2017-Sep-02 23:30N 39°57' W 009°33'2 3.1
2017-Sep-02 22:55N 39°58' W 009°33'1 3.1
2017-Sep-02 22:29N 39°60' W 009°33'2 3.0
2017-Sep-02 21:59N 40°01' W 009°35'3 5.1
2017-Sep-02 21:29N 40°01' W 009°38'0 0.7
2017-Sep-02 21:00N 40°01' W 009°38'1 3.0
2017-Sep-02 20:30N 40°03' W 009°37'2 3.0
2017-Sep-02 19:58N 40°04' W 009°37'1 3.0
2017-Sep-02 19:30N 40°06' W 009°37'2 3.1
2017-Sep-02 19:00N 40°07' W 009°37'2 3.1
2017-Sep-02 18:30N 40°09' W 009°37'1 3.0
2017-Sep-02 18:00N 40°10' W 009°37'2 3.1
2017-Sep-02 17:30N 40°12' W 009°37'2 4.1
2017-Sep-02 17:00N 40°14' W 009°37'1 1.4
2017-Sep-02 16:30N 40°15' W 009°37'1 2.6
2017-Sep-02 16:00N 40°13' W 009°37'2 3.1
2017-Sep-02 15:28N 40°12' W 009°37'1 3.0
2017-Sep-02 15:00N 40°10' W 009°37'2 3.1
2017-Sep-02 14:30N 40°09' W 009°37'2 3.0
2017-Sep-02 13:55N 40°07' W 009°37'1 3.1
2017-Sep-02 13:30N 40°06' W 009°37'2 3.1
2017-Sep-02 13:00N 40°04' W 009°36'2 3.1
2017-Sep-02 12:30N 40°03' W 009°37'2 3.1
2017-Sep-02 12:00N 40°01' W 009°37'2 4.0
2017-Sep-02 11:30N 39°59' W 009°37'1 1.2
2017-Sep-02 10:57N 39°59' W 009°38'1 2.7
2017-Sep-02 10:30N 39°58' W 009°38'1 2.9
2017-Sep-02 09:59N 39°56' W 009°38'2 3.0
2017-Sep-02 09:28N 39°55' W 009°38'1 3.2
2017-Sep-02 09:00N 39°53' W 009°38'2 3.4
2017-Sep-02 08:30N 39°51' W 009°38'2 3.1
2017-Sep-02 08:00N 39°50' W 009°37'2 3.2
2017-Sep-02 07:30N 39°48' W 009°36'3 5.9
2017-Sep-02 07:00N 39°46' W 009°37'5 9.6
2017-Sep-02 06:30N 39°41' W 009°39'5 9.3
2017-Sep-02 06:00N 39°37' W 009°41'5 9.3
2017-Sep-02 05:29N 39°32' W 009°43'7 8.7
2017-Sep-02 04:38N 39°25' W 009°46'3 8.1
2017-Sep-02 04:14N 39°22' W 009°48'3 2.3
2017-Sep-02 03:02N 39°19' W 009°49'0 3.2
2017-Sep-02 02:58N 39°19' W 009°49'2 3.1
2017-Sep-02 02:23N 39°18' W 009°50'1 3.1
2017-Sep-02 02:00N 39°17' W 009°50'2 3.0
2017-Sep-02 01:30N 39°15' W 009°51'1 3.0
2017-Sep-02 01:00N 39°14' W 009°52'2 3.0
2017-Sep-02 00:23N 39°12' W 009°52'1 3.0
2017-Sep-02 00:00N 39°11' W 009°52'2 3.0
2017-Sep-01 23:30N 39°09' W 009°52'1 3.0
2017-Sep-01 23:00N 39°08' W 009°52'0 0.7
2017-Sep-01 22:30N 39°08' W 009°52'2 3.1
2017-Sep-01 22:00N 39°09' W 009°53'2 3.1
2017-Sep-01 21:30N 39°11' W 009°54'2 3.1
2017-Sep-01 21:00N 39°12' W 009°56'2 3.0
2017-Sep-01 20:29N 39°12' W 009°57'2 2.9
2017-Sep-01 19:58N 39°14' W 009°59'1 3.0
2017-Sep-01 19:28N 39°15' W 009°59'1 2.9
2017-Sep-01 18:58N 39°16' W 010°00'2 3.1
2017-Sep-01 18:29N 39°18' W 010°01'2 3.4
2017-Sep-01 17:52N 39°18' W 010°04'2 5.5
2017-Sep-01 17:29N 39°16' W 010°04'0 0.5
2017-Sep-01 16:58N 39°17' W 010°05'3 2.9
2017-Sep-01 15:48N 39°15' W 010°01'1 3.3
2017-Sep-01 15:30N 39°14' W 009°60'2 3.2
2017-Sep-01 15:00N 39°14' W 009°58'2 3.2
2017-Sep-01 14:30N 39°13' W 009°56'2 3.0
2017-Sep-01 13:58N 39°12' W 009°55'1 3.0
2017-Sep-01 13:30N 39°11' W 009°54'1 3.0
2017-Sep-01 13:00N 39°10' W 009°52'2 3.1
2017-Sep-01 12:30N 39°08' W 009°51'1 2.9
2017-Sep-01 12:00N 39°08' W 009°49'0 0.9
2017-Sep-01 11:30N 39°08' W 009°49'2 3.0
2017-Sep-01 11:00N 39°09' W 009°50'2 3.1
2017-Sep-01 10:30N 39°11' W 009°51'2 3.1
2017-Sep-01 10:00N 39°12' W 009°53'2 3.0
2017-Sep-01 09:30N 39°13' W 009°54'1 2.9
2017-Sep-01 09:00N 39°14' W 009°55'1 2.9
2017-Sep-01 08:30N 39°15' W 009°56'2 3.0
2017-Sep-01 08:00N 39°16' W 009°58'2 3.0
2017-Sep-01 07:29N 39°17' W 009°59'2 3.6
2017-Sep-01 06:55N 39°18' W 010°02'5 2.0
2017-Sep-01 04:23N 39°15' W 009°57'2 3.1
2017-Sep-01 03:43N 39°13' W 009°55'1 3.0
2017-Sep-01 03:30N 39°12' W 009°55'2 3.0
2017-Sep-01 02:58N 39°11' W 009°53'1 3.1
2017-Sep-01 02:29N 39°10' W 009°52'1 3.1
2017-Sep-01 02:00N 39°09' W 009°51'2 3.6
2017-Sep-01 01:30N 39°07' W 009°50'3 5.6
2017-Sep-01 01:00N 39°05' W 009°47'0 0.9
2017-Sep-01 00:30N 39°05' W 009°47'1 2.7
2017-Sep-01 00:01N 39°05' W 009°48'2 3.2
2017-Aug-31 23:30N 39°05' W 009°50'2 3.2
2017-Aug-31 23:00N 39°04' W 009°52'2 3.1
2017-Aug-31 22:30N 39°03' W 009°54'2 3.1
2017-Aug-31 22:00N 39°02' W 009°55'2 3.4
2017-Aug-31 21:30N 39°00' W 009°55'2 4.6
2017-Aug-31 21:00N 38°58' W 009°55'0 1.0
2017-Aug-31 20:30N 38°58' W 009°55'2 3.0
2017-Aug-31 20:00N 38°59' W 009°56'1 3.0
2017-Aug-31 19:30N 38°60' W 009°58'1 2.9
2017-Aug-31 19:00N 39°01' W 009°60'1 2.8
2017-Aug-31 18:30N 39°01' W 010°01'1 2.9
2017-Aug-31 18:00N 39°01' W 010°03'1 2.9
2017-Aug-31 17:30N 38°59' W 010°04'2 3.6
2017-Aug-31 17:00N 38°57' W 010°04'3 5.8
2017-Aug-31 16:30N 38°55' W 010°03'0 0.9
2017-Aug-31 16:00N 38°55' W 010°02'1 3.0
2017-Aug-31 15:30N 38°56' W 010°01'2 3.1
2017-Aug-31 15:00N 38°57' W 009°60'2 3.2
2017-Aug-31 14:31N 38°59' W 009°59'2 3.1
2017-Aug-31 14:00N 39°00' W 009°60'2 3.0
2017-Aug-31 13:30N 39°01' W 010°00'2 3.0
2017-Aug-31 13:01N 39°03' W 010°01'2 3.0
2017-Aug-31 12:30N 39°04' W 010°01'2 3.1
2017-Aug-31 12:00N 39°06' W 010°01'2 3.2
2017-Aug-31 11:30N 39°08' W 010°01'2 4.4
2017-Aug-31 11:00N 39°10' W 010°01'0 0.9
2017-Aug-31 10:30N 39°10' W 010°01'2 3.0
2017-Aug-31 10:00N 39°11' W 009°60'2 3.1
2017-Aug-31 09:30N 39°13' W 009°58'2 3.1
2017-Aug-31 09:00N 39°14' W 009°57'2 3.1
2017-Aug-31 08:30N 39°15' W 009°55'2 3.0
2017-Aug-31 07:58N 39°16' W 009°54'1 3.1
2017-Aug-31 07:30N 39°17' W 009°53'1 3.0
2017-Aug-31 07:00N 39°18' W 009°52'  

Dump ship's entire track history